Terminal Aerodrome Forecast
Issued by NWS Mt. Holly, NJ

Home | Current Version | Previous Version | Text Only | Print | Product List | Glossary On
Versions: 1 2 3 4 5 6 7 8 9 10 11 12 13 14
000
FTUS41 KPHI 261120
TAFRDG
TAF
KRDG 261120Z 2612/2712 VRB03KT P6SM SKC
     FM261400 22008KT P6SM FEW060 SCT150
     FM261800 19009G16KT P6SM SCT050 BKN150
     FM270100 18006KT P6SM OVC100
     FM270800 19004KT 5SM BR FEW020 BKN100=

USA.gov is the U.S. government's official web portal to all federal, state and local government web resources and services.